• Join FlightAware (Why Join?)
  • Login
  • US Flag 
02:45AM EST


 

Airport Tracker/Info


-or-


 

Live Flight TrackerFlight Track Log ✈ DAL1515 ✈ 30-Jun-2013 ✈ KATL - KALB

Flight Track Log - Related Links

Times and Time Zones

All times are in EDT time to prevent confusion due to time zone crossing. See the DAL1515 flight status page for this flight to view local times or setup timezone preferences in your user account.

Time Position Orientation Groundspeed Altitude Reporting Facility
EDT Latitude Longitude Course Direction KTS MPH feet Rate Location/Type
08:29PM 33.6500 -84.4833 11° North 199 229 2,800  Level Atlanta TRACON
08:30PM 33.6833 -84.5667 296° West 273 314 5,300 2,520 Climbing Atlanta TRACON
08:31PM 33.8735 -84.2068 320° Northwest  Level FlightAware Approximate
08:31PM 33.7667 -84.5833 351° North 282 325 8,100  Level Atlanta TRACON
08:32PM 33.9943 -84.2667 North  Level FlightAware Approximate
08:33PM 34.1330 -84.2667 North  Level FlightAware Approximate
08:33PM 33.8958 -84.4717 36° Northeast 301 346 11,000  Level Atlanta Center
08:34PM 34.2718 -84.2667 North  Level FlightAware Approximate
08:34PM 33.9878 -84.3869 37° Northeast 367 422 13,600  Level Atlanta Center
08:35PM 34.4081 -84.2368 11° North  Level FlightAware Approximate
08:36PM 34.2008 -84.3125 16° North 418 481 18,000  Level Atlanta Center
08:37PM 34.3178 -84.2753 15° North 430 495 20,200 1,860 Climbing Atlanta Center
08:38PM 34.4369 -84.2478 11° North 430 495 21,800 1,380 Climbing Atlanta Center
08:39PM 34.5642 -84.2203 10° North 442 509 23,000 1,260 Climbing Atlanta Center
08:40PM 34.6894 -84.1903 11° North 455 524 24,400 1,320 Climbing Atlanta Center
08:41PM 34.8272 -84.1578 11° North 472 543 25,700 1,140 Climbing Atlanta Center
08:42PM 34.9631 -84.1250 11° North 486 559 26,700 1,320 Climbing Atlanta Center
08:43PM 35.1047 -84.0922 11° North 496 571 28,400 1,140 Climbing Atlanta Center
08:44PM 35.2447 -84.0592 11° North 502 578 29,000 840 Climbing Atlanta Center
08:45PM 35.3867 -84.0233 12° North 514 592 30,100 1,080 Climbing Atlanta Center
08:46PM 35.5347 -83.9878 11° North 525 604 31,200 1,200 Climbing Atlanta Center
08:47PM 35.6786 -83.9492 12° North 530 610 32,500 900 Climbing Atlanta Center
08:48PM 35.8206 -83.9158 11° North 524 603 33,000 240 Climbing Atlanta Center
08:49PM 35.9581 -83.8642 17° North 518 596 33,000  Level Atlanta Center
08:50PM 36.0892 -83.7817 27° Northeast 511 588 33,000  Level Atlanta Center
08:51PM 36.1572 -83.7331 30° Northeast 520 598 33,000  Level Indianapolis Center
08:52PM 36.2861 -83.6500 27° Northeast 522 601 33,000  Level Indianapolis Center
08:53PM 36.4147 -83.5678 27° Northeast 521 600 33,000  Level Indianapolis Center
08:54PM 36.5694 -83.4714 27° Northeast 530 610 33,000  Level Indianapolis Center
08:55PM 36.6922 -83.3775 32° Northeast 523 602 33,000  Level Indianapolis Center
08:56PM 36.8067 -83.2692 37° Northeast 517 595 33,000  Level Indianapolis Center
08:57PM 36.9219 -83.1606 37° Northeast 524 603 33,000  Level Indianapolis Center
08:58PM 37.0372 -83.0492 38° Northeast 514 592 33,000  Level Indianapolis Center
08:59PM 37.1369 -82.9194 46° Northeast 506 582 33,000  Level Indianapolis Center
09:00PM 37.2358 -82.7919 46° Northeast 505 581 33,000  Level Indianapolis Center
09:01PM 37.3367 -82.6647 45° Northeast 509 586 33,000  Level Indianapolis Center
09:02PM 37.4369 -82.5372 45° Northeast 509 586 33,000  Level Indianapolis Center
09:03PM 37.5400 -82.4150 43° Northeast 508 585 33,000  Level Indianapolis Center
09:04PM 37.6397 -82.2869 45° Northeast 511 588 33,000  Level Indianapolis Center
09:05PM 37.7353 -82.1569 47° Northeast 504 580 33,000  Level Indianapolis Center
09:06PM 37.8369 -82.0106 49° Northeast 503 579 33,000  Level Indianapolis Center
09:07PM 37.9292 -81.8753 49° Northeast 509 586 33,000  Level Indianapolis Center
09:08PM 38.0214 -81.7386 49° Northeast 510 587 33,000  Level Indianapolis Center
09:09PM 38.1142 -81.6025 49° Northeast 512 589 33,000  Level Indianapolis Center
09:10PM 38.2047 -81.4661 50° Northeast 508 585 33,000  Level Indianapolis Center
09:11PM 38.2928 -81.3319 50° Northeast 500 575 33,000  Level Indianapolis Center
09:12PM 38.3994 -81.1703 50° Northeast 501 577 33,000  Level Indianapolis Center
09:13PM 38.4875 -81.0367 50° Northeast 497 572 33,000  Level Indianapolis Center
09:14PM 38.5761 -80.9022 50° Northeast 498 573 33,000  Level Indianapolis Center
09:15PM 38.6647 -80.7683 50° Northeast 497 572 33,000  Level Indianapolis Center
09:17PM 38.7539 -80.6314 50° Northeast 501 577 33,000  Level Indianapolis Center
09:18PM 38.8414 -80.4953 50° Northeast 496 571 33,000  Level Indianapolis Center
09:19PM 38.9311 -80.3589 50° Northeast 501 577 33,000  Level Indianapolis Center
09:20PM 39.0383 -80.1967 50° Northeast 497 572 33,000  Level Indianapolis Center
09:21PM 39.1194 -80.0686 51° Northeast 497 572 33,000  Level Indianapolis Center
09:22PM 39.2136 -79.9189 51° Northeast 499 574 33,000  Level Indianapolis Center
09:22PM 39.2686 -79.8431 47° Northeast 493 567 33,000  Level Cleveland Center
09:23PM 39.3511 -79.7161 50° Northeast 498 573 33,000  Level Cleveland Center
09:24PM 39.4394 -79.5753 51° Northeast 503 579 33,000  Level Cleveland Center
09:25PM 39.5256 -79.4339 52° Northeast 503 579 33,000  Level Cleveland Center
09:26PM 39.6139 -79.2950 50° Northeast 498 573 33,000  Level Cleveland Center
09:27PM 39.7017 -79.1503 52° Northeast 498 573 33,000 60 Level Cleveland Center
09:28PM 39.7894 -79.0081 51° Northeast 498 573 33,200 300 Climbing Cleveland Center
09:29PM 39.8811 -78.8517 53° Northeast 498 573 33,600 420 Climbing Cleveland Center
09:30PM 39.9622 -78.7194 51° Northeast 504 580 34,100 480 Climbing Cleveland Center
09:31PM 40.0536 -78.5761 50° Northeast 504 580 34,600 420 Climbing Cleveland Center
09:32PM 40.1383 -78.4242 54° Northeast 509 586 35,000 60 Climbing Cleveland Center
09:35PM 40.3183 -78.0536 57° Northeast 507 583 35,000  Level New York Center
09:36PM 40.3989 -77.8931 57° Northeast 507 583 35,000  Level New York Center
09:37PM 40.4750 -77.7369 57° Northeast 507 583 35,000  Level New York Center
09:38PM 40.5447 -77.5775 60° Northeast 501 577 35,000  Level New York Center
09:39PM 40.6125 -77.4119 62° Northeast 501 577 35,000  Level New York Center
09:40PM 40.6806 -77.2350 63° Northeast 501 577 35,000  Level New York Center
09:41PM 40.7542 -77.0719 59° Northeast 501 577 35,000  Level New York Center
09:42PM 40.8269 -76.9142 59° Northeast 501 577 35,000  Level New York Center
09:43PM 40.9058 -76.7564 56° Northeast 507 583 35,000  Level New York Center
09:44PM 41.0006 -76.6136 49° Northeast 513 590 35,000  Level New York Center
09:45PM 41.0950 -76.4703 49° Northeast 513 590 35,000 -360 Level New York Center
09:46PM 41.1875 -76.3236 50° Northeast 519 597 34,300 -1,320 Descending New York Center
09:47PM 41.2800 -76.1711 51° Northeast 525 604 32,400 -1,920 Descending New York Center
09:48PM 41.3689 -76.0428 47° Northeast 533 613 30,500 -2,220 Descending New York Center
09:50PM 41.6061 -75.6692 50° Northeast 510 587 24,900 -1,920 Descending Boston Center
09:51PM 41.6911 -75.5317 50° Northeast 487 560 24,000 -480 Descending Boston Center
09:52PM 41.7717 -75.4019 50° Northeast 466 536 24,000  Level Boston Center
09:53PM 41.8503 -75.2719 51° Northeast 455 524 24,000 -780 Level Boston Center
09:54PM 41.9325 -75.1444 49° Northeast 450 518 22,500 -1,680 Descending Boston Center
09:55PM 42.0083 -75.0192 51° Northeast 443 510 20,700 -1,800 Descending Boston Center
09:56PM 42.0797 -74.9100 49° Northeast 435 501 19,000 -900 Descending Boston Center
09:57PM 42.1553 -74.7814 52° Northeast 435 501 19,000 -960 Level Boston Center
09:58PM 42.2306 -74.6608 50° Northeast 435 501 17,100 -2,100 Descending Boston Center
09:59PM 42.3081 -74.5372 50° Northeast 415 478 14,900 -2,100 Descending Boston Center
10:00PM 42.3728 -74.4242 52° Northeast 403 464 13,000 -1,800 Descending Boston Center
10:01PM 42.4622 -74.2975 46° Northeast 362 417 11,000 -1,320 Descending Boston Center
10:02PM 42.5133 -74.2314 44° Northeast 340 391 10,400 -1,140 Descending Boston Center
10:03PM 42.5856 -74.1433 42° Northeast 306 352 9,000 -1,320 Descending Boston Center
10:04PM 42.6344 -74.0856 41° Northeast 301 346 7,500 -1,980 Descending Boston Center
10:05PM 42.7192 -73.9858 41° Northeast 288 331 4,700 -2,760 Descending Boston Center